Time;durP1;ratioP1;P1;durP2;ratioP2;P2;SDS_P1;SDS_P2;PMS_P1;PMS_P2;Temp;Humidity;BMP_temperature;BMP_pressure;BME280_temperature;BME280_humidity;BME280_pressure;Samples;Min_cycle;Max_cycle;Signal;HPM_P1;HPM_P2
2022/11/10 00:01:42;;;;;;;;;;;;;;;-143.48;88.15;79095.06;5054426;28;20349;-73
2022/11/10 00:04:07;;;;;;;;;;;;;;;-143.48;88.65;79108.94;5054403;28;19912;-73
2022/11/10 00:06:32;;;;;;;;;;;;;;;-143.48;88.85;79106.97;5036634;28;19913;-73
2022/11/10 00:08:57;;;;;;;;;;;;;;;-143.48;88.97;79108.94;5054432;28;20283;-73
2022/11/10 00:11:23;;;;;;;;;;;;;;;-143.48;89.32;79108.94;5036293;28;19920;-72
2022/11/10 00:19:16;;;;;;;;;;;;;;;-143.48;89.94;79128.78;5054368;28;20410;-73
2022/11/10 00:21:41;;;;;;;;;;;;;;;-143.48;89.80;79122.81;5036051;28;19952;-72
2022/11/10 00:24:06;;;;;;;;;;;;;;;-143.48;89.67;79122.81;5036151;28;19916;-70
2022/11/10 00:26:32;;;;;;;;;;;;;;;-143.48;90.05;79126.78;5036149;28;20265;-72
2022/11/10 00:28:57;;;;;;;;;;;;;;;-143.48;90.35;79134.72;5035863;28;19912;-72
2022/11/10 00:31:22;;;;;;;;;;;;;;;-143.48;90.23;79128.78;5035588;28;20383;-73
2022/11/10 00:33:47;;;;;;;;;;;;;;;-143.48;90.32;79138.69;5053643;28;19913;-73
2022/11/10 00:36:12;;;;;;;;;;;;;;;-143.48;90.42;79130.75;5035966;28;19912;-72
2022/11/10 00:38:38;;;;;;;;;;;;;;;-143.48;90.40;79144.66;5035965;28;20007;-73
2022/11/10 00:41:03;;;;;;;;;;;;;;;-143.48;90.63;79156.53;5035864;28;19924;-74
2022/11/10 00:43:28;;;;;;;;;;;;;;;-143.48;90.69;79166.47;5035739;28;19919;-73
2022/11/10 00:45:54;;;;;;;;;;;;;;;-143.48;91.05;79172.41;5036078;28;20012;-72
2022/11/10 00:48:19;;;;;;;;;;;;;;;-143.48;91.02;79164.47;5035904;28;19920;-73
2022/11/10 00:50:44;;;;;;;;;;;;;;;-143.48;91.00;79168.44;5035913;28;20027;-72
2022/11/10 00:53:09;;;;;;;;;;;;;;;-143.48;91.11;79170.44;5053609;28;20382;-73
2022/11/10 00:55:39;;;;;;;;;;;;;;;-143.48;91.05;79184.31;5035727;28;20387;-73
2022/11/10 00:58:04;;;;;;;;;;;;;;;-143.48;91.15;79182.34;5035676;28;19913;-73
2022/11/10 01:00:29;;;;;;;;;;;;;;;-143.48;91.06;79188.28;5053449;28;19970;-73
2022/11/10 01:02:54;;;;;;;;;;;;;;;-143.48;91.12;79180.34;5053502;28;20022;-73
2022/11/10 01:05:20;;;;;;;;;;;;;;;-143.48;90.92;79180.34;5035508;28;20360;-73
2022/11/10 01:07:45;;;;;;;;;;;;;;;-143.48;91.11;79182.34;5053401;28;19920;-72
2022/11/10 01:10:10;;;;;;;;;;;;;;;-143.48;91.08;79178.38;5053327;28;20015;-72
2022/11/10 01:12:35;;;;;;;;;;;;;;;-143.48;91.07;79180.34;5053344;28;19913;-72
2022/11/10 01:15:00;;;;;;;;;;;;;;;-143.48;91.10;79182.34;5053307;28;19936;-72
2022/11/10 01:17:26;;;;;;;;;;;;;;;-143.48;91.26;79184.31;5053332;28;20011;-73
2022/11/10 01:19:51;;;;;;;;;;;;;;;-143.48;91.31;79192.25;5053370;28;20326;-73
2022/11/10 01:22:16;;;;;;;;;;;;;;;-143.48;91.47;79186.31;5053307;28;20435;-72
2022/11/10 01:24:41;;;;;;;;;;;;;;;-143.48;91.67;79190.28;5035032;28;19952;-72
2022/11/10 01:27:06;;;;;;;;;;;;;;;-143.48;91.54;79184.31;5035306;28;19923;-72
2022/11/10 01:29:32;;;;;;;;;;;;;;;-143.48;91.30;79186.31;5034858;28;19928;-72
2022/11/10 01:31:57;;;;;;;;;;;;;;;-143.48;91.30;79192.25;5053237;28;19913;-72
2022/11/10 01:34:22;;;;;;;;;;;;;;;-143.48;91.65;79192.25;5035327;28;19913;-73
2022/11/10 01:36:47;;;;;;;;;;;;;;;-143.48;92.06;79190.28;5035189;28;19924;-73
2022/11/10 01:39:12;;;;;;;;;;;;;;;-143.48;91.90;79198.19;5035072;28;19916;-74
2022/11/10 01:41:38;;;;;;;;;;;;;;;-143.48;91.93;79190.28;5034780;28;20261;-73
2022/11/10 01:44:10;;;;;;;;;;;;;;;-143.48;91.70;79202.16;5037584;28;19928;-72
2022/11/10 01:46:35;;;;;;;;;;;;;;;-143.48;91.85;79204.16;5039077;28;19912;-73
2022/11/10 01:49:01;;;;;;;;;;;;;;;-143.48;91.85;79204.16;5056930;28;19920;-73
2022/11/10 01:51:31;;;;;;;;;;;;;;;-143.48;91.64;79214.06;5039042;28;19917;-73
2022/11/10 01:54:08;;;;;;;;;;;;;;;-143.48;91.65;79212.09;5038868;28;20479;-73
2022/11/10 01:56:36;;;;;;;;;;;;;;;-143.48;91.85;79212.09;5039051;28;19920;-73
2022/11/10 01:59:04;;;;;;;;;;;;;;;-143.48;91.79;79218.03;5038928;28;20027;-72
2022/11/10 02:01:30;;;;;;;;;;;;;;;-143.48;91.73;79210.09;5038888;28;20380;-72
2022/11/10 02:04:00;;;;;;;;;;;;;;;-143.48;91.66;79216.06;5038809;28;19920;-73
2022/11/10 02:06:27;;;;;;;;;;;;;;;-143.48;91.64;79220.03;5038877;28;20312;-72
2022/11/10 02:08:53;;;;;;;;;;;;;;;-143.48;91.62;79225.97;5038898;28;19913;-73
2022/11/10 02:11:18;;;;;;;;;;;;;;;-143.48;91.90;79227.97;5038873;28;19964;-73
2022/11/10 02:13:44;;;;;;;;;;;;;;;-143.48;91.87;79227.97;5056758;28;20020;-73
2022/11/10 02:16:10;;;;;;;;;;;;;;;-143.48;91.88;79235.88;5038710;28;19912;-73
2022/11/10 02:18:35;;;;;;;;;;;;;;;-143.48;92.13;79241.84;5038652;28;19912;-72
2022/11/10 02:21:02;;;;;;;;;;;;;;;-143.48;92.16;79251.75;5056323;28;19965;-73
2022/11/10 02:23:33;;;;;;;;;;;;;;;-143.48;92.21;79245.81;5056497;28;19956;-73
2022/11/10 02:25:59;;;;;;;;;;;;;;;-143.48;92.45;79247.78;5038319;28;19913;-72
2022/11/10 02:28:24;;;;;;;;;;;;;;;-143.48;92.47;79251.75;5056326;28;20379;-72
2022/11/10 02:30:50;;;;;;;;;;;;;;;-143.48;92.67;79263.66;5038414;28;19947;-73
2022/11/10 02:33:18;;;;;;;;;;;;;;;-143.48;92.47;79251.75;5038339;28;19919;-72
2022/11/10 02:35:44;;;;;;;;;;;;;;;-143.48;92.50;79253.75;5038323;28;19919;-73
2022/11/10 02:38:09;;;;;;;;;;;;;;;-143.48;92.45;79261.69;5056044;28;19913;-73
2022/11/10 02:40:34;;;;;;;;;;;;;;;-143.48;92.48;79273.59;5038013;28;20007;-72
2022/11/10 02:43:00;;;;;;;;;;;;;;;-143.48;92.63;79275.56;5038206;28;19996;-72
2022/11/10 02:45:25;;;;;;;;;;;;;;;-143.48;92.91;79277.53;5038151;28;19967;-73
2022/11/10 02:47:50;;;;;;;;;;;;;;;-143.48;93.04;79277.53;5056035;28;19959;-73
2022/11/10 02:50:16;;;;;;;;;;;;;;;-143.48;93.02;79281.50;5038034;28;20384;-72
2022/11/10 02:52:41;;;;;;;;;;;;;;;-143.48;92.92;79285.47;5055725;28;20276;-73
2022/11/10 02:55:06;;;;;;;;;;;;;;;-143.48;93.01;79295.41;5054982;28;20018;-73
2022/11/10 02:57:31;;;;;;;;;;;;;;;-143.48;93.25;79301.34;5055691;28;19920;-73
2022/11/10 02:59:57;;;;;;;;;;;;;;;-143.48;93.04;79299.38;5037777;28;20364;-73
2022/11/10 03:02:22;;;;;;;;;;;;;;;-143.48;93.12;79309.28;5055595;28;20364;-72
2022/11/10 03:04:47;;;;;;;;;;;;;;;-143.48;93.47;79307.31;5055749;28;19913;-72
2022/11/10 03:07:12;;;;;;;;;;;;;;;-143.48;93.63;79305.31;5055597;28;19920;-72
2022/11/10 03:09:38;;;;;;;;;;;;;;;-143.48;93.45;79301.34;5037767;28;19967;-72
2022/11/10 03:12:03;;;;;;;;;;;;;;;-143.48;93.57;79307.31;5037681;28;19963;-73
2022/11/10 03:14:28;;;;;;;;;;;;;;;-143.48;93.63;79307.31;5037550;28;20427;-73
2022/11/10 03:16:53;;;;;;;;;;;;;;;-143.48;93.43;79317.22;5055336;28;19964;-75
2022/11/10 03:19:19;;;;;;;;;;;;;;;-143.48;93.44;79315.25;5037484;28;19912;-74
2022/11/10 03:21:44;;;;;;;;;;;;;;;-143.48;93.40;79327.13;5037296;28;19917;-72
2022/11/10 03:24:09;;;;;;;;;;;;;;;-143.48;93.52;79327.13;5037393;28;19963;-72
2022/11/10 03:26:34;;;;;;;;;;;;;;;-143.48;93.89;79331.09;5038732;28;19920;-71
2022/11/10 03:28:59;;;;;;;;;;;;;;;-143.48;93.80;79323.16;5055563;28;20323;-72
2022/11/10 03:31:24;;;;;;;;;;;;;;;-143.48;93.47;79327.13;5037407;28;19912;-72
2022/11/10 03:33:50;;;;;;;;;;;;;;;-143.48;93.52;79335.06;5037516;28;19920;-71
2022/11/10 03:36:15;;;;;;;;;;;;;;;-143.48;93.79;79329.13;5037183;28;19913;-72
2022/11/10 03:38:40;;;;;;;;;;;;;;;-143.48;93.60;79341.03;5055216;28;19920;-72
2022/11/10 03:41:05;;;;;;;;;;;;;;;-143.48;93.69;79337.06;5054868;28;19916;-72
2022/11/10 03:43:30;;;;;;;;;;;;;;;-143.48;93.69;79341.03;5036857;28;19913;-72
2022/11/10 03:45:56;;;;;;;;;;;;;;;-143.48;93.66;79350.94;5037126;28;20007;-72
2022/11/10 03:48:21;;;;;;;;;;;;;;;-143.48;93.84;79352.94;5037181;28;19991;-72
2022/11/10 03:50:46;;;;;;;;;;;;;;;-143.48;93.71;79370.78;5036988;28;20036;-72
2022/11/10 03:53:11;;;;;;;;;;;;;;;-143.48;93.53;79364.84;5036927;28;19912;-72
2022/11/10 03:55:36;;;;;;;;;;;;;;;-143.48;93.39;79374.75;5036960;28;20322;-72
2022/11/10 03:58:02;;;;;;;;;;;;;;;-143.48;93.59;79368.78;5054599;28;19940;-72
2022/11/10 04:00:28;;;;;;;;;;;;;;;-143.48;93.58;79384.66;5036924;28;19964;-73
2022/11/10 04:02:53;;;;;;;;;;;;;;;-143.48;93.45;79374.75;5054630;28;19936;-72
2022/11/10 04:10:48;;;;;;;;;;;;;;;-143.48;93.65;79402.53;5054762;28;20094;-72
2022/11/10 04:15:57;;;;;;;;;;;;;;;-143.48;93.48;79400.53;5054245;28;20398;-73
2022/11/10 04:18:25;;;;;;;;;;;;;;;-143.48;93.36;79400.53;5036416;28;19913;-72
2022/11/10 04:20:58;;;;;;;;;;;;;;;-143.48;93.62;79410.47;5036254;28;20273;-72
2022/11/10 04:23:34;;;;;;;;;;;;;;;-143.48;93.31;79408.47;5054138;28;19913;-72
2022/11/10 04:26:28;;;;;;;;;;;;;;;-143.48;93.43;79408.47;5036182;28;19951;-72
2022/11/10 04:28:55;;;;;;;;;;;;;;;-143.48;93.12;79404.50;5035916;28;19913;-72
2022/11/10 04:31:21;;;;;;;;;;;;;;;-143.48;92.96;79410.47;5053974;28;19913;-72
2022/11/10 04:33:47;;;;;;;;;;;;;;;-143.48;93.09;79404.50;5036083;28;19917;-72
2022/11/10 04:36:14;;;;;;;;;;;;;;;-143.48;93.17;79406.50;5036076;28;20296;-72
2022/11/10 04:38:39;;;;;;;;;;;;;;;-143.48;93.33;79414.44;5054089;28;19963;-72
2022/11/10 04:41:05;;;;;;;;;;;;;;;-143.48;93.41;79422.34;5036084;28;20376;-72
2022/11/10 04:43:30;;;;;;;;;;;;;;;-143.48;93.61;79422.34;5036065;28;19919;-72
2022/11/10 04:45:56;;;;;;;;;;;;;;;-143.48;93.38;79422.34;5035933;28;19919;-72
2022/11/10 04:48:21;;;;;;;;;;;;;;;-143.48;93.59;79428.31;5035734;28;20026;-73
2022/11/10 04:50:46;;;;;;;;;;;;;;;-143.48;93.58;79438.22;5053807;28;19952;-73
2022/11/10 04:53:12;;;;;;;;;;;;;;;-143.48;93.76;79436.25;5035686;28;19913;-72
2022/11/10 04:55:38;;;;;;;;;;;;;;;-143.48;93.43;79436.25;5035696;28;19913;-73
2022/11/10 04:58:04;;;;;;;;;;;;;;;-143.48;93.53;79444.19;5053544;28;19913;-73
2022/11/10 05:00:30;;;;;;;;;;;;;;;-143.48;93.62;79446.16;5036201;28;20326;-73
2022/11/10 05:02:57;;;;;;;;;;;;;;;-143.48;93.47;79452.13;5053397;28;19913;-73
2022/11/10 05:05:22;;;;;;;;;;;;;;;-143.48;93.84;79452.13;5035658;28;19917;-72
2022/11/10 05:07:47;;;;;;;;;;;;;;;-143.48;93.88;79454.09;5053520;28;19934;-72
2022/11/10 05:10:13;;;;;;;;;;;;;;;-143.48;93.68;79446.16;5035534;28;19938;-72
2022/11/10 05:12:38;;;;;;;;;;;;;;;-143.48;93.73;79442.19;5053414;28;19919;-72
2022/11/10 05:15:04;;;;;;;;;;;;;;;-143.48;93.60;79444.19;5035723;28;19963;-72
2022/11/10 05:17:29;;;;;;;;;;;;;;;-143.48;93.83;79467.97;5035322;28;19913;-73
2022/11/10 05:19:54;;;;;;;;;;;;;;;-143.48;93.87;79456.09;5035304;28;20336;-72
2022/11/10 05:22:19;;;;;;;;;;;;;;;-143.48;93.63;79462.03;5053283;28;19913;-72
2022/11/10 05:24:44;;;;;;;;;;;;;;;-143.48;93.68;79460.06;5053222;28;19944;-72
2022/11/10 05:27:10;;;;;;;;;;;;;;;-143.48;93.71;79452.13;5035367;28;20280;-72
2022/11/10 05:29:35;;;;;;;;;;;;;;;-143.48;93.85;79460.06;5035399;28;19921;-72
2022/11/10 05:32:00;;;;;;;;;;;;;;;-143.48;94.06;79464.03;5035206;28;19919;-72
2022/11/10 05:34:25;;;;;;;;;;;;;;;-143.48;94.02;79462.03;5035381;28;19983;-73
2022/11/10 05:36:50;;;;;;;;;;;;;;;-143.48;93.73;79452.13;5053085;28;19912;-73
2022/11/10 05:39:16;;;;;;;;;;;;;;;-143.48;93.87;79452.13;5053141;28;19913;-72
2022/11/10 05:41:41;;;;;;;;;;;;;;;-143.48;93.58;79446.16;5035023;28;19944;-72
2022/11/10 05:44:06;;;;;;;;;;;;;;;-143.48;93.89;79450.13;5035202;28;19917;-72
2022/11/10 05:46:31;;;;;;;;;;;;;;;-143.48;93.45;79444.19;5053045;28;19913;-73
2022/11/10 05:48:56;;;;;;;;;;;;;;;-143.48;93.34;79448.16;5053142;28;19921;-72
2022/11/10 05:51:22;;;;;;;;;;;;;;;-143.48;93.52;79456.09;5052855;28;19913;-72
2022/11/10 05:53:47;;;;;;;;;;;;;;;-143.48;93.40;79454.09;5035106;28;20372;-72
2022/11/10 05:56:12;;;;;;;;;;;;;;;-143.48;93.32;79450.13;5053081;28;19913;-72
2022/11/10 05:58:37;;;;;;;;;;;;;;;-143.48;93.30;79466.00;5034960;28;19924;-72
2022/11/10 06:01:03;;;;;;;;;;;;;;;-143.48;93.47;79458.06;5052763;28;19924;-73
2022/11/10 06:03:28;;;;;;;;;;;;;;;-143.48;93.34;79471.94;5034876;28;19919;-72
2022/11/10 06:05:53;;;;;;;;;;;;;;;-143.48;93.37;79469.97;5034897;28;19912;-73
2022/11/10 06:08:19;;;;;;;;;;;;;;;-143.48;93.56;79473.94;5034882;28;19952;-73
2022/11/10 06:10:45;;;;;;;;;;;;;;;-143.48;93.39;79475.91;5034996;28;19917;-73
2022/11/10 06:13:10;;;;;;;;;;;;;;;-143.48;93.49;79481.88;5052904;28;19980;-73
2022/11/10 06:15:35;;;;;;;;;;;;;;;-143.48;93.22;79489.81;5034971;28;19964;-74
2022/11/10 06:18:01;;;;;;;;;;;;;;;-143.48;93.26;79499.72;5052865;28;19920;-73
2022/11/10 06:20:26;;;;;;;;;;;;;;;-143.48;93.55;79509.66;5034748;28;20439;-71
2022/11/10 06:22:58;;;;;;;;;;;;;;;-143.48;93.35;79503.69;5052846;28;19919;-73
2022/11/10 06:25:24;;;;;;;;;;;;;;;-143.48;93.18;79501.72;5034707;28;19913;-73
2022/11/10 06:27:49;;;;;;;;;;;;;;;-143.48;93.07;79505.69;5052645;28;19913;-71
2022/11/10 06:30:15;;;;;;;;;;;;;;;-143.48;92.91;79495.75;5035633;28;19925;-74
2022/11/10 06:32:43;;;;;;;;;;;;;;;-143.48;92.79;79495.75;5056261;28;19948;-73
2022/11/10 06:35:08;;;;;;;;;;;;;;;-143.48;92.75;79499.72;5038318;28;19913;-71
2022/11/10 06:37:33;;;;;;;;;;;;;;;-143.48;92.52;79501.72;5038169;28;20094;-73
2022/11/10 06:39:59;;;;;;;;;;;;;;;-143.48;92.36;79493.78;5038170;28;20351;-74
2022/11/10 06:42:24;;;;;;;;;;;;;;;-143.48;92.45;79509.66;5056109;28;20003;-74
2022/11/10 06:44:49;;;;;;;;;;;;;;;-143.48;92.39;79505.69;5038262;28;19913;-73
2022/11/10 06:47:15;;;;;;;;;;;;;;;-143.48;92.24;79501.72;5038127;28;20379;-73
2022/11/10 06:49:40;;;;;;;;;;;;;;;-143.48;92.41;79511.63;5055803;28;19963;-72
2022/11/10 06:52:05;;;;;;;;;;;;;;;-143.48;92.23;79519.56;5055542;28;19913;-74
2022/11/10 06:54:30;;;;;;;;;;;;;;;-143.48;92.23;79517.56;5037601;28;19912;-74
2022/11/10 06:56:56;;;;;;;;;;;;;;;-143.48;91.83;79531.47;5055123;28;19913;-73
2022/11/10 06:59:21;;;;;;;;;;;;;;;-143.48;91.63;79531.47;5055166;28;20000;-73
2022/11/10 07:01:47;;;;;;;;;;;;;;;-143.48;91.67;79539.41;5055616;28;20379;-73
2022/11/10 07:04:14;;;;;;;;;;;;;;;-143.48;91.68;79535.44;5055622;28;19913;-73
2022/11/10 07:06:39;;;;;;;;;;;;;;;-143.48;91.28;79539.41;5037788;28;20444;-73
2022/11/10 07:09:04;;;;;;;;;;;;;;;-143.48;91.10;79521.53;5055569;28;19972;-73
2022/11/10 07:11:30;;;;;;;;;;;;;;;-143.48;90.91;79527.50;5055578;28;19912;-73
2022/11/10 07:13:55;;;;;;;;;;;;;;;-143.48;90.75;79527.50;5037713;28;19912;-73
2022/11/10 07:16:21;;;;;;;;;;;;;;;-143.48;90.98;79519.56;5037774;28;20007;-73
2022/11/10 07:18:52;;;;;;;;;;;;;;;-143.48;90.76;79515.59;5037867;28;20375;-74
2022/11/10 07:21:18;;;;;;;;;;;;;;;-143.48;90.66;79515.59;5037808;28;20015;-73
2022/11/10 07:23:45;;;;;;;;;;;;;;;-143.48;90.45;79497.75;5037661;28;19959;-73
2022/11/10 07:26:10;;;;;;;;;;;;;;;-143.48;89.69;79487.81;5037068;28;19959;-75
2022/11/10 07:28:35;;;;;;;;;;;;;;;-143.48;89.74;79489.81;5054221;28;19948;-74
2022/11/10 07:31:01;;;;;;;;;;;;;;;-143.48;89.65;79477.91;5036434;28;20000;-72
2022/11/10 07:33:26;;;;;;;;;;;;;;;-143.48;89.32;79467.97;5036735;28;19921;-73
2022/11/10 07:35:54;;;;;;;;;;;;;;;-143.48;89.05;79471.94;5054623;28;20007;-73
2022/11/10 07:38:19;;;;;;;;;;;;;;;-143.48;88.85;79479.88;5037367;28;19963;-73
2022/11/10 07:40:44;;;;;;;;;;;;;;;-143.48;88.32;79444.19;5036983;28;20364;-73
2022/11/10 07:43:16;;;;;;;;;;;;;;;-143.48;87.32;79422.34;5038916;28;19912;-74
2022/11/10 07:45:41;;;;;;;;;;;;;;;-143.48;86.99;79432.28;5037208;28;19919;-73
2022/11/10 07:48:08;;;;;;;;;;;;;;;-143.48;86.41;79420.38;5037158;28;19917;-71
2022/11/10 07:50:34;;;;;;;;;;;;;;;-143.48;85.94;79432.28;5038035;28;19920;-72
2022/11/10 07:53:03;;;;;;;;;;;;;;;-143.48;85.29;79418.38;5037042;28;19927;-73
2022/11/10 07:55:28;;;;;;;;;;;;;;;-143.48;86.24;79418.38;5054647;28;20002;-71
2022/11/10 07:57:57;;;;;;;;;;;;;;;-143.48;85.13;79382.69;5054724;28;20392;-72
2022/11/10 08:00:22;;;;;;;;;;;;;;;-143.48;84.94;79420.38;5036524;28;19931;-71
2022/11/10 08:02:47;;;;;;;;;;;;;;;-143.48;85.28;79420.38;5036730;28;19913;-72
2022/11/10 08:05:13;;;;;;;;;;;;;;;-143.48;84.29;79392.59;5036421;28;20335;-71
2022/11/10 08:07:39;;;;;;;;;;;;;;;-143.48;83.51;79358.88;5054355;28;20390;-72
2022/11/10 08:10:05;;;;;;;;;;;;;;;-143.48;82.19;79335.06;5036508;28;19913;-72
2022/11/10 08:12:30;;;;;;;;;;;;;;;-143.48;81.81;79319.22;5036431;28;20015;-72
2022/11/10 08:14:55;;;;;;;;;;;;;;;-143.48;80.91;79337.06;5036252;28;19956;-72
2022/11/10 08:17:20;;;;;;;;;;;;;;;-143.48;80.45;79307.31;5036220;28;19935;-72
2022/11/10 08:19:46;;;;;;;;;;;;;;;-143.48;79.66;79297.38;5036184;28;20339;-74
2022/11/10 08:22:11;;;;;;;;;;;;;;;-143.48;80.05;79313.25;5036167;28;19917;-72
2022/11/10 08:24:36;;;;;;;;;;;;;;;-143.48;80.29;79307.31;5036178;28;19967;-72
2022/11/10 08:27:01;;;;;;;;;;;;;;;-143.48;80.37;79301.34;5036103;28;19951;-73
2022/11/10 08:29:26;;;;;;;;;;;;;;;-143.48;79.85;79329.13;5035949;28;19925;-72
2022/11/10 08:31:52;;;;;;;;;;;;;;;-143.48;81.98;79341.03;5036169;28;20232;-73
2022/11/10 08:34:17;;;;;;;;;;;;;;;-143.48;81.05;79321.19;5035823;28;19923;-73
2022/11/10 08:36:43;;;;;;;;;;;;;;;-143.48;80.71;79329.13;5053820;28;19913;-72
2022/11/10 08:39:08;;;;;;;;;;;;;;;-143.48;81.41;79341.03;5035823;28;19913;-72
2022/11/10 08:41:33;;;;;;;;;;;;;;;-143.48;80.97;79325.16;5034810;28;20479;-73
2022/11/10 08:43:58;;;;;;;;;;;;;;;-143.48;80.42;79307.31;5035575;28;20451;-74
2022/11/10 08:46:24;;;;;;;;;;;;;;;-143.48;80.53;79313.25;5035935;28;20298;-73
2022/11/10 08:48:49;;;;;;;;;;;;;;;-143.48;80.71;79327.13;5035005;28;19919;-72
2022/11/10 08:51:14;;;;;;;;;;;;;;;-143.48;80.50;79307.31;5035835;28;19919;-73
2022/11/10 08:53:39;;;;;;;;;;;;;;;-143.48;79.64;79301.34;5035037;28;19912;-72
2022/11/10 08:56:05;;;;;;;;;;;;;;;-143.48;79.25;79295.41;5035029;28;19920;-73
2022/11/10 08:58:30;;;;;;;;;;;;;;;-143.48;79.11;79293.41;5034896;28;19971;-73
2022/11/10 09:00:55;;;;;;;;;;;;;;;-143.48;79.19;79305.31;5053412;28;19916;-73
2022/11/10 09:03:22;;;;;;;;;;;;;;;-143.48;79.56;79301.34;5053516;28;19920;-73
2022/11/10 09:05:48;;;;;;;;;;;;;;;-143.48;79.30;79285.47;5035811;28;19923;-73
2022/11/10 09:08:13;;;;;;;;;;;;;;;-143.48;78.82;79275.56;5053274;28;19912;-73
2022/11/10 09:10:42;;;;;;;;;;;;;;;-143.48;78.16;79255.72;5053239;28;19913;-73
2022/11/10 09:13:09;;;;;;;;;;;;;;;-143.48;77.98;79255.72;5035511;28;19946;-73
2022/11/10 09:15:34;;;;;;;;;;;;;;;-143.48;72.35;79083.16;5053345;28;19916;-73
2022/11/10 09:18:01;;;;;;;;;;;;;;;-143.48;61.90;78825.31;5052772;28;20419;-74
2022/11/10 09:20:27;;;;;;;;;;;;;;;-143.48;54.96;78549.59;5034898;28;19939;-74
2022/11/10 09:22:52;;;;;;;;;;;;;;;-143.48;53.50;78539.69;5034754;28;19916;-73
2022/11/10 09:25:17;;;;;;;;;;;;;;;-143.48;51.77;78478.22;5035539;28;19919;-73
2022/11/10 09:27:42;;;;;;;;;;;;;;;-143.48;51.38;78507.97;5053424;28;19912;-74
2022/11/10 09:30:08;;;;;;;;;;;;;;;-143.48;51.65;78486.16;5035298;28;20012;-74
2022/11/10 09:32:33;;;;;;;;;;;;;;;-143.48;49.66;78426.66;5035316;28;19962;-76
2022/11/10 09:34:59;;;;;;;;;;;;;;;-143.48;50.74;78519.88;5053242;28;19913;-72
2022/11/10 09:37:24;;;;;;;;;;;;;;;-143.48;52.14;78513.91;5035440;28;19919;-73
2022/11/10 09:39:49;;;;;;;;;;;;;;;-143.48;53.74;78575.41;5053175;28;19919;-74
2022/11/10 09:42:25;;;;;;;;;;;;;;;-143.48;51.75;78531.75;5035284;28;19925;-74
2022/11/10 09:44:53;;;;;;;;;;;;;;;-143.48;50.60;78488.13;5035116;28;19935;-73
2022/11/10 09:47:23;;;;;;;;;;;;;;;-143.48;52.72;78565.47;5034951;28;20415;-74
2022/11/10 09:49:52;;;;;;;;;;;;;;;-143.48;55.14;78702.31;5033913;28;19963;-72
2022/11/10 09:52:19;;;;;;;;;;;;;;;-143.48;59.96;78839.19;5052171;28;19971;-72
2022/11/10 09:54:50;;;;;;;;;;;;;;;-143.48;59.72;78809.44;5033958;28;19913;-72
2022/11/10 09:57:18;;;;;;;;;;;;;;;-143.48;61.04;78853.06;5053009;28;20454;-71
2022/11/10 09:59:43;;;;;;;;;;;;;;;-143.48;62.33;78906.63;5035304;28;19919;-74
2022/11/10 10:02:08;;;;;;;;;;;;;;;-143.48;64.09;78974.06;5052803;28;19917;-73
2022/11/10 10:04:43;;;;;;;;;;;;;;;-143.48;64.04;78960.19;5052615;28;19919;-73
2022/11/10 10:07:12;;;;;;;;;;;;;;;-143.48;63.58;78952.25;5038468;28;20287;-73
2022/11/10 10:10:01;;;;;;;;;;;;;;;-143.48;60.21;78787.63;5057051;28;19916;-74
2022/11/10 10:12:32;;;;;;;;;;;;;;;-143.48;56.82;78706.28;5038029;28;19913;-74
2022/11/10 10:15:14;;;;;;;;;;;;;;;-143.48;54.52;78623.00;5056341;28;19963;-73
2022/11/10 10:17:42;;;;;;;;;;;;;;;-143.48;55.36;78710.25;5038347;28;19913;-73
2022/11/10 10:20:14;;;;;;;;;;;;;;;-143.48;54.40;78619.03;5038724;28;19967;-72
2022/11/10 10:22:42;;;;;;;;;;;;;;;-143.48;53.09;78607.13;5038772;28;19916;-73
2022/11/10 10:25:13;;;;;;;;;;;;;;;-143.48;52.16;78535.72;5038652;28;19952;-73
2022/11/10 10:27:39;;;;;;;;;;;;;;;-143.48;51.31;78462.34;5038652;28;20422;-74
2022/11/10 10:30:10;;;;;;;;;;;;;;;-143.48;50.74;78476.22;5021948;28;20449;-74
2022/11/10 10:32:36;;;;;;;;;;;;;;;-143.48;52.99;78630.94;5022105;28;20292;-74
2022/11/10 10:35:01;;;;;;;;;;;;;;;-143.48;58.93;78851.09;5038031;28;19961;-73
2022/11/10 10:37:38;;;;;;;;;;;;;;;-143.48;51.61;78484.16;5056172;28;19917;-72
2022/11/10 10:40:03;;;;;;;;;;;;;;;-143.48;47.42;78305.66;5038369;28;19913;-73
2022/11/10 10:42:36;;;;;;;;;;;;;;;-143.48;50.07;78456.41;5056163;28;20394;-72
2022/11/10 10:45:20;;;;;;;;;;;;;;;-143.48;51.31;78545.66;5052173;28;19966;-73
2022/11/10 10:47:48;;;;;;;;;;;;;;;-143.48;55.56;78658.69;5056223;28;19980;-74
2022/11/10 10:50:22;;;;;;;;;;;;;;;-143.48;58.82;78857.03;5038017;28;19940;-73
2022/11/10 10:53:06;;;;;;;;;;;;;;;-143.48;60.19;78835.22;5056144;28;19917;-74
2022/11/10 10:55:31;;;;;;;;;;;;;;;-143.48;62.46;78904.63;5038033;28;20385;-73
2022/11/10 10:57:59;;;;;;;;;;;;;;;-143.48;64.12;78974.06;5056079;28;19966;-73
2022/11/10 11:00:24;;;;;;;;;;;;;;;-143.48;64.89;78980.00;5037948;28;19943;-73
2022/11/10 11:03:03;;;;;;;;;;;;;;;-143.48;66.73;79033.56;5038054;28;19946;-73
2022/11/10 11:05:29;;;;;;;;;;;;;;;-143.48;68.79;79073.25;5038466;28;20292;-72
2022/11/10 11:07:55;;;;;;;;;;;;;;;-143.48;69.65;79079.19;5038477;28;19916;-72
2022/11/10 11:10:22;;;;;;;;;;;;;;;-143.48;70.10;79093.06;5037634;28;19920;-73
2022/11/10 11:12:47;;;;;;;;;;;;;;;-143.48;69.68;79095.06;5037952;28;19923;-73
2022/11/10 11:15:24;;;;;;;;;;;;;;;-143.48;69.82;79085.13;5037793;28;19913;-72
2022/11/10 11:17:53;;;;;;;;;;;;;;;-143.48;68.94;79079.19;5037368;28;20372;-73
2022/11/10 11:20:20;;;;;;;;;;;;;;;-143.48;69.12;79093.06;5037577;28;20007;-73
2022/11/10 11:22:52;;;;;;;;;;;;;;;-143.48;69.97;79110.94;5055498;28;19917;-73
2022/11/10 11:25:36;;;;;;;;;;;;;;;-143.48;70.21;79136.72;5037467;28;19916;-72
2022/11/10 11:28:04;;;;;;;;;;;;;;;-143.48;70.73;79176.38;5055545;28;20016;-72
2022/11/10 11:30:37;;;;;;;;;;;;;;;-143.48;71.43;79176.38;5037173;28;19921;-73
2022/11/10 11:33:02;;;;;;;;;;;;;;;-143.48;70.62;79144.66;5037248;28;19912;-72
2022/11/10 11:35:32;;;;;;;;;;;;;;;-143.48;70.48;79144.66;5037191;28;19913;-72
2022/11/10 11:38:06;;;;;;;;;;;;;;;-143.48;70.65;79162.50;5037164;28;19921;-73
2022/11/10 11:40:42;;;;;;;;;;;;;;;-143.48;71.29;79174.41;5055094;28;19924;-74
2022/11/10 11:43:13;;;;;;;;;;;;;;;-143.48;71.56;79198.19;5036899;28;19993;-72
2022/11/10 11:45:38;;;;;;;;;;;;;;;-143.48;70.76;79156.53;5036952;28;19913;-75
2022/11/10 11:48:15;;;;;;;;;;;;;;;-143.48;71.36;79190.28;5054915;28;19920;-76
2022/11/10 11:50:53;;;;;;;;;;;;;;;-143.48;72.69;79225.97;5036916;28;19919;-73
2022/11/10 11:53:18;;;;;;;;;;;;;;;-143.48;72.00;79208.13;5037030;28;19962;-73
2022/11/10 11:56:00;;;;;;;;;;;;;;;-143.48;71.98;79204.16;5054695;28;20372;-73
2022/11/10 11:58:35;;;;;;;;;;;;;;;-143.48;71.29;79196.22;5055075;28;19947;-71
2022/11/10 12:01:15;;;;;;;;;;;;;;;-143.48;70.96;79174.41;5020211;28;19921;-72
2022/11/10 12:03:41;;;;;;;;;;;;;;;-143.48;69.33;79120.84;5036639;28;19913;-72
2022/11/10 12:06:25;;;;;;;;;;;;;;;-143.48;67.72;79095.06;5036577;28;19913;-73
2022/11/10 12:08:57;;;;;;;;;;;;;;;-143.48;66.94;79067.28;5036311;28;19912;-73
2022/11/10 12:11:49;;;;;;;;;;;;;;;-143.48;68.16;79110.94;5036449;28;19912;-73
2022/11/10 12:14:21;;;;;;;;;;;;;;;-143.48;nan;78989.94;5036531;28;19913;-75
2022/11/10 12:16:53;;;;;;;;;;;;;;;-143.48;62.93;78946.28;5036255;28;20016;-73
2022/11/10 12:19:22;;;;;;;;;;;;;;;-143.48;59.74;78862.97;5054144;28;19913;-72
2022/11/10 12:21:58;;;;;;;;;;;;;;;-143.48;51.94;78513.91;5054181;28;19927;-73
2022/11/10 12:24:31;;;;;;;;;;;;;;;-143.48;49.73;78470.28;5054097;28;19921;-73
2022/11/10 12:27:02;;;;;;;;;;;;;;;-143.48;53.62;78708.28;5053837;28;20327;-72
2022/11/10 12:29:34;;;;;;;;;;;;;;;-143.48;61.54;78991.91;5018614;28;22369;-73
2022/11/10 12:32:14;;;;;;;;;;;;;;;-143.48;64.44;79049.44;5036069;28;19916;-72
2022/11/10 12:34:46;;;;;;;;;;;;;;;-143.48;65.51;79095.06;5054151;28;19996;-71
2022/11/10 12:37:16;;;;;;;;;;;;;;;-143.48;66.59;79083.16;5053852;28;19995;-73
2022/11/10 12:39:44;;;;;;;;;;;;;;;-143.48;67.76;79106.97;5036068;28;19959;-73
2022/11/10 12:42:23;;;;;;;;;;;;;;;-143.48;67.56;79140.69;5054636;28;19916;-73